sensor_id;sensor_type;location;lat;lon;timestamp;P1;durP1;ratioP1;P2;durP2;ratioP2
4132;SDS011;2080;51.038;7.008;2023-02-13T00:00:46;1999.90;;;999.90;;
4132;SDS011;2080;51.038;7.008;2023-02-13T00:03:14;1999.90;;;999.90;;
4132;SDS011;2080;51.038;7.008;2023-02-13T00:05:39;1999.90;;;999.90;;
4132;SDS011;2080;51.038;7.008;2023-02-13T00:08:07;1999.90;;;999.90;;
4132;SDS011;2080;51.038;7.008;2023-02-13T00:10:33;1999.90;;;999.90;;
4132;SDS011;2080;51.038;7.008;2023-02-13T00:12:58;1999.90;;;999.90;;
4132;SDS011;2080;51.038;7.008;2023-02-13T00:15:24;1999.90;;;999.90;;
4132;SDS011;2080;51.038;7.008;2023-02-13T00:17:49;1999.90;;;999.90;;
4132;SDS011;2080;51.038;7.008;2023-02-13T00:20:14;1999.90;;;999.90;;
4132;SDS011;2080;51.038;7.008;2023-02-13T00:22:40;1999.90;;;999.90;;
4132;SDS011;2080;51.038;7.008;2023-02-13T00:25:05;1999.90;;;999.90;;
4132;SDS011;2080;51.038;7.008;2023-02-13T00:27:34;1999.90;;;999.90;;
4132;SDS011;2080;51.038;7.008;2023-02-13T00:29:59;1999.90;;;999.90;;
4132;SDS011;2080;51.038;7.008;2023-02-13T00:32:24;1999.90;;;999.90;;
4132;SDS011;2080;51.038;7.008;2023-02-13T00:34:50;1999.90;;;999.90;;
4132;SDS011;2080;51.038;7.008;2023-02-13T00:37:18;1999.90;;;999.90;;
4132;SDS011;2080;51.038;7.008;2023-02-13T00:39:45;1999.90;;;999.90;;
4132;SDS011;2080;51.038;7.008;2023-02-13T00:42:11;1999.90;;;999.90;;
4132;SDS011;2080;51.038;7.008;2023-02-13T00:44:38;1999.90;;;999.90;;
4132;SDS011;2080;51.038;7.008;2023-02-13T00:47:04;1999.90;;;999.90;;
4132;SDS011;2080;51.038;7.008;2023-02-13T00:49:31;1999.90;;;999.90;;
4132;SDS011;2080;51.038;7.008;2023-02-13T00:52:01;1999.90;;;999.90;;
4132;SDS011;2080;51.038;7.008;2023-02-13T00:54:26;1999.90;;;999.90;;
4132;SDS011;2080;51.038;7.008;2023-02-13T00:56:57;1999.90;;;999.90;;
4132;SDS011;2080;51.038;7.008;2023-02-13T00:59:26;1999.90;;;999.90;;
4132;SDS011;2080;51.038;7.008;2023-02-13T01:01:54;1999.90;;;999.90;;
4132;SDS011;2080;51.038;7.008;2023-02-13T01:04:20;1999.90;;;999.90;;
4132;SDS011;2080;51.038;7.008;2023-02-13T01:06:47;1999.90;;;999.90;;
4132;SDS011;2080;51.038;7.008;2023-02-13T01:09:13;1999.90;;;999.90;;
4132;SDS011;2080;51.038;7.008;2023-02-13T01:11:38;1999.90;;;999.90;;
4132;SDS011;2080;51.038;7.008;2023-02-13T01:14:03;1999.90;;;999.90;;
4132;SDS011;2080;51.038;7.008;2023-02-13T01:16:31;1999.90;;;999.90;;
4132;SDS011;2080;51.038;7.008;2023-02-13T01:18:57;1999.90;;;999.90;;
4132;SDS011;2080;51.038;7.008;2023-02-13T01:21:24;1999.90;;;999.90;;
4132;SDS011;2080;51.038;7.008;2023-02-13T01:23:50;1999.90;;;999.90;;
4132;SDS011;2080;51.038;7.008;2023-02-13T01:26:16;1999.90;;;999.90;;
4132;SDS011;2080;51.038;7.008;2023-02-13T01:28:44;1999.90;;;999.90;;
4132;SDS011;2080;51.038;7.008;2023-02-13T01:31:09;1999.90;;;999.90;;
4132;SDS011;2080;51.038;7.008;2023-02-13T01:33:34;1999.90;;;999.90;;
4132;SDS011;2080;51.038;7.008;2023-02-13T01:36:06;1999.90;;;999.90;;
4132;SDS011;2080;51.038;7.008;2023-02-13T01:38:33;1999.90;;;999.90;;
4132;SDS011;2080;51.038;7.008;2023-02-13T01:40:58;1999.90;;;999.90;;
4132;SDS011;2080;51.038;7.008;2023-02-13T01:43:41;1999.90;;;999.90;;
4132;SDS011;2080;51.038;7.008;2023-02-13T01:46:07;1999.90;;;999.90;;
4132;SDS011;2080;51.038;7.008;2023-02-13T01:48:35;1999.90;;;999.90;;
4132;SDS011;2080;51.038;7.008;2023-02-13T01:51:04;1999.90;;;999.90;;
4132;SDS011;2080;51.038;7.008;2023-02-13T01:53:38;1999.90;;;999.90;;
4132;SDS011;2080;51.038;7.008;2023-02-13T01:56:16;1999.90;;;999.90;;
4132;SDS011;2080;51.038;7.008;2023-02-13T01:58:46;1999.90;;;999.90;;
4132;SDS011;2080;51.038;7.008;2023-02-13T02:01:14;1999.90;;;999.90;;
4132;SDS011;2080;51.038;7.008;2023-02-13T02:03:46;1999.90;;;999.90;;
4132;SDS011;2080;51.038;7.008;2023-02-13T02:06:25;1999.90;;;999.90;;
4132;SDS011;2080;51.038;7.008;2023-02-13T02:09:00;1999.90;;;999.90;;
4132;SDS011;2080;51.038;7.008;2023-02-13T02:14:15;1999.90;;;999.90;;
4132;SDS011;2080;51.038;7.008;2023-02-13T02:16:40;1999.90;;;999.90;;
4132;SDS011;2080;51.038;7.008;2023-02-13T02:19:12;1999.90;;;999.90;;
4132;SDS011;2080;51.038;7.008;2023-02-13T02:21:59;1999.90;;;999.90;;
4132;SDS011;2080;51.038;7.008;2023-02-13T02:27:40;1999.90;;;999.90;;
4132;SDS011;2080;51.038;7.008;2023-02-13T02:41:34;1999.90;;;999.90;;
4132;SDS011;2080;51.038;7.008;2023-02-13T02:55:43;1999.90;;;999.90;;
4132;SDS011;2080;51.038;7.008;2023-02-13T02:58:17;1999.90;;;999.90;;
4132;SDS011;2080;51.038;7.008;2023-02-13T03:01:06;1999.90;;;999.90;;
4132;SDS011;2080;51.038;7.008;2023-02-13T03:03:55;1999.90;;;999.90;;
4132;SDS011;2080;51.038;7.008;2023-02-13T03:06:48;1999.90;;;999.90;;
4132;SDS011;2080;51.038;7.008;2023-02-13T03:09:23;1999.90;;;999.90;;
4132;SDS011;2080;51.038;7.008;2023-02-13T03:12:11;1999.90;;;999.90;;
4132;SDS011;2080;51.038;7.008;2023-02-13T03:15:00;1999.90;;;999.90;;
4132;SDS011;2080;51.038;7.008;2023-02-13T03:17:25;1999.90;;;999.90;;
4132;SDS011;2080;51.038;7.008;2023-02-13T03:20:19;1999.90;;;999.90;;
4132;SDS011;2080;51.038;7.008;2023-02-13T03:23:33;1999.90;;;999.90;;
4132;SDS011;2080;51.038;7.008;2023-02-13T03:31:41;1999.90;;;999.90;;
4132;SDS011;2080;51.038;7.008;2023-02-13T03:34:22;1999.90;;;999.90;;
4132;SDS011;2080;51.038;7.008;2023-02-13T03:36:56;1999.90;;;999.90;;
4132;SDS011;2080;51.038;7.008;2023-02-13T03:44:59;1999.90;;;999.90;;
4132;SDS011;2080;51.038;7.008;2023-02-13T03:47:48;1999.90;;;999.90;;
4132;SDS011;2080;51.038;7.008;2023-02-13T03:50:18;1999.90;;;999.90;;
4132;SDS011;2080;51.038;7.008;2023-02-13T03:52:46;1999.90;;;999.90;;
4132;SDS011;2080;51.038;7.008;2023-02-13T03:55:17;1999.90;;;999.90;;
4132;SDS011;2080;51.038;7.008;2023-02-13T03:58:14;1999.90;;;999.90;;
4132;SDS011;2080;51.038;7.008;2023-02-13T04:01:05;1999.90;;;999.90;;
4132;SDS011;2080;51.038;7.008;2023-02-13T04:03:39;1999.90;;;999.90;;
4132;SDS011;2080;51.038;7.008;2023-02-13T04:06:14;1999.90;;;999.90;;
4132;SDS011;2080;51.038;7.008;2023-02-13T04:08:45;1999.90;;;999.90;;
4132;SDS011;2080;51.038;7.008;2023-02-13T04:11:14;1999.90;;;999.90;;
4132;SDS011;2080;51.038;7.008;2023-02-13T04:13:58;1999.90;;;999.90;;
4132;SDS011;2080;51.038;7.008;2023-02-13T04:16:43;1999.90;;;999.90;;
4132;SDS011;2080;51.038;7.008;2023-02-13T04:19:15;1999.90;;;999.90;;
4132;SDS011;2080;51.038;7.008;2023-02-13T04:21:41;1999.90;;;999.90;;
4132;SDS011;2080;51.038;7.008;2023-02-13T04:24:07;1999.90;;;999.90;;
4132;SDS011;2080;51.038;7.008;2023-02-13T04:26:37;1999.90;;;999.90;;
4132;SDS011;2080;51.038;7.008;2023-02-13T04:29:05;1999.90;;;999.90;;
4132;SDS011;2080;51.038;7.008;2023-02-13T04:31:30;1999.90;;;999.90;;
4132;SDS011;2080;51.038;7.008;2023-02-13T04:33:58;1999.90;;;999.90;;
4132;SDS011;2080;51.038;7.008;2023-02-13T04:36:24;1999.90;;;999.90;;
4132;SDS011;2080;51.038;7.008;2023-02-13T04:38:50;1999.90;;;999.90;;
4132;SDS011;2080;51.038;7.008;2023-02-13T04:41:15;1999.90;;;999.90;;
4132;SDS011;2080;51.038;7.008;2023-02-13T04:43:41;1999.90;;;999.90;;
4132;SDS011;2080;51.038;7.008;2023-02-13T04:46:07;1999.90;;;999.90;;
4132;SDS011;2080;51.038;7.008;2023-02-13T04:48:32;1999.90;;;999.90;;
4132;SDS011;2080;51.038;7.008;2023-02-13T04:51:00;1999.90;;;999.90;;
4132;SDS011;2080;51.038;7.008;2023-02-13T04:53:25;1999.90;;;999.90;;
4132;SDS011;2080;51.038;7.008;2023-02-13T04:55:53;1999.90;;;999.90;;
4132;SDS011;2080;51.038;7.008;2023-02-13T04:58:18;1999.90;;;999.90;;
4132;SDS011;2080;51.038;7.008;2023-02-13T05:00:48;1999.90;;;999.90;;
4132;SDS011;2080;51.038;7.008;2023-02-13T05:03:14;1999.90;;;999.90;;
4132;SDS011;2080;51.038;7.008;2023-02-13T05:05:39;1999.90;;;999.90;;
4132;SDS011;2080;51.038;7.008;2023-02-13T05:08:09;1999.90;;;999.90;;
4132;SDS011;2080;51.038;7.008;2023-02-13T05:10:35;1999.90;;;999.90;;
4132;SDS011;2080;51.038;7.008;2023-02-13T05:13:01;1999.90;;;999.90;;
4132;SDS011;2080;51.038;7.008;2023-02-13T05:15:29;1999.90;;;999.90;;
4132;SDS011;2080;51.038;7.008;2023-02-13T05:17:57;1999.90;;;999.90;;
4132;SDS011;2080;51.038;7.008;2023-02-13T05:20:27;1999.90;;;999.90;;
4132;SDS011;2080;51.038;7.008;2023-02-13T05:22:53;1999.90;;;999.90;;
4132;SDS011;2080;51.038;7.008;2023-02-13T05:25:38;1999.90;;;999.90;;
4132;SDS011;2080;51.038;7.008;2023-02-13T05:28:07;1999.90;;;999.90;;
4132;SDS011;2080;51.038;7.008;2023-02-13T05:30:51;1999.90;;;999.90;;
4132;SDS011;2080;51.038;7.008;2023-02-13T05:33:17;1999.90;;;999.90;;
4132;SDS011;2080;51.038;7.008;2023-02-13T05:35:45;1999.90;;;999.90;;
4132;SDS011;2080;51.038;7.008;2023-02-13T05:38:12;1999.90;;;999.90;;
4132;SDS011;2080;51.038;7.008;2023-02-13T05:40:38;1999.90;;;999.90;;
4132;SDS011;2080;51.038;7.008;2023-02-13T05:43:05;1999.90;;;999.90;;
4132;SDS011;2080;51.038;7.008;2023-02-13T05:45:31;1999.90;;;999.90;;
4132;SDS011;2080;51.038;7.008;2023-02-13T05:47:56;1999.90;;;999.90;;
4132;SDS011;2080;51.038;7.008;2023-02-13T05:50:21;1999.90;;;999.90;;
4132;SDS011;2080;51.038;7.008;2023-02-13T05:52:47;1999.90;;;999.90;;
4132;SDS011;2080;51.038;7.008;2023-02-13T05:55:12;1999.90;;;999.90;;
4132;SDS011;2080;51.038;7.008;2023-02-13T05:57:42;1999.90;;;999.90;;
4132;SDS011;2080;51.038;7.008;2023-02-13T06:00:08;1999.90;;;999.90;;
4132;SDS011;2080;51.038;7.008;2023-02-13T06:02:36;1999.90;;;999.90;;
4132;SDS011;2080;51.038;7.008;2023-02-13T06:05:04;1999.90;;;999.90;;
4132;SDS011;2080;51.038;7.008;2023-02-13T06:07:32;1999.90;;;999.90;;
4132;SDS011;2080;51.038;7.008;2023-02-13T06:09:58;1999.90;;;999.90;;
4132;SDS011;2080;51.038;7.008;2023-02-13T06:12:26;1999.90;;;999.90;;
4132;SDS011;2080;51.038;7.008;2023-02-13T06:14:51;1999.90;;;999.90;;
4132;SDS011;2080;51.038;7.008;2023-02-13T06:17:16;1999.90;;;999.90;;
4132;SDS011;2080;51.038;7.008;2023-02-13T06:19:42;1999.90;;;999.90;;
4132;SDS011;2080;51.038;7.008;2023-02-13T06:22:09;1999.90;;;999.90;;
4132;SDS011;2080;51.038;7.008;2023-02-13T06:24:35;1999.90;;;999.90;;
4132;SDS011;2080;51.038;7.008;2023-02-13T06:27:02;1999.90;;;999.90;;
4132;SDS011;2080;51.038;7.008;2023-02-13T06:29:28;1999.90;;;999.90;;
4132;SDS011;2080;51.038;7.008;2023-02-13T06:31:57;1999.90;;;999.90;;
4132;SDS011;2080;51.038;7.008;2023-02-13T06:34:25;1999.90;;;999.90;;
4132;SDS011;2080;51.038;7.008;2023-02-13T06:36:50;1999.90;;;999.90;;
4132;SDS011;2080;51.038;7.008;2023-02-13T06:39:16;1999.90;;;999.90;;
4132;SDS011;2080;51.038;7.008;2023-02-13T06:41:44;1999.90;;;999.90;;
4132;SDS011;2080;51.038;7.008;2023-02-13T06:44:09;1999.90;;;999.90;;
4132;SDS011;2080;51.038;7.008;2023-02-13T06:46:37;1999.90;;;999.90;;
4132;SDS011;2080;51.038;7.008;2023-02-13T06:49:05;1999.90;;;999.90;;
4132;SDS011;2080;51.038;7.008;2023-02-13T06:51:33;1999.90;;;999.90;;
4132;SDS011;2080;51.038;7.008;2023-02-13T06:53:58;1999.90;;;999.90;;
4132;SDS011;2080;51.038;7.008;2023-02-13T06:56:23;1999.90;;;999.90;;
4132;SDS011;2080;51.038;7.008;2023-02-13T06:58:50;1999.90;;;999.90;;
4132;SDS011;2080;51.038;7.008;2023-02-13T07:01:18;1999.90;;;999.90;;
4132;SDS011;2080;51.038;7.008;2023-02-13T07:03:46;1999.90;;;999.90;;
4132;SDS011;2080;51.038;7.008;2023-02-13T07:06:19;1999.90;;;999.90;;
4132;SDS011;2080;51.038;7.008;2023-02-13T07:08:45;1999.90;;;999.90;;
4132;SDS011;2080;51.038;7.008;2023-02-13T07:11:19;1999.90;;;999.90;;
4132;SDS011;2080;51.038;7.008;2023-02-13T07:13:45;1999.90;;;999.90;;
4132;SDS011;2080;51.038;7.008;2023-02-13T07:16:15;1999.90;;;999.90;;
4132;SDS011;2080;51.038;7.008;2023-02-13T07:18:41;1999.90;;;999.90;;
4132;SDS011;2080;51.038;7.008;2023-02-13T07:21:06;1999.90;;;999.90;;
4132;SDS011;2080;51.038;7.008;2023-02-13T07:23:34;1999.90;;;999.90;;
4132;SDS011;2080;51.038;7.008;2023-02-13T07:26:02;1999.90;;;999.90;;
4132;SDS011;2080;51.038;7.008;2023-02-13T07:28:30;1999.90;;;999.90;;
4132;SDS011;2080;51.038;7.008;2023-02-13T07:30:56;1999.90;;;999.90;;
4132;SDS011;2080;51.038;7.008;2023-02-13T07:33:22;1999.90;;;999.90;;
4132;SDS011;2080;51.038;7.008;2023-02-13T07:35:48;1999.90;;;999.90;;
4132;SDS011;2080;51.038;7.008;2023-02-13T07:38:15;1999.90;;;999.90;;
4132;SDS011;2080;51.038;7.008;2023-02-13T07:40:41;1999.90;;;999.90;;
4132;SDS011;2080;51.038;7.008;2023-02-13T07:43:06;1999.90;;;999.90;;
4132;SDS011;2080;51.038;7.008;2023-02-13T07:45:34;1999.90;;;999.90;;
4132;SDS011;2080;51.038;7.008;2023-02-13T07:48:02;1999.90;;;999.90;;
4132;SDS011;2080;51.038;7.008;2023-02-13T07:50:29;1999.90;;;999.90;;
4132;SDS011;2080;51.038;7.008;2023-02-13T07:52:59;1999.90;;;999.90;;
4132;SDS011;2080;51.038;7.008;2023-02-13T07:55:28;1999.90;;;999.90;;
4132;SDS011;2080;51.038;7.008;2023-02-13T07:57:54;1999.90;;;999.90;;
4132;SDS011;2080;51.038;7.008;2023-02-13T08:00:20;1999.90;;;999.90;;
4132;SDS011;2080;51.038;7.008;2023-02-13T08:02:49;1999.90;;;999.90;;
4132;SDS011;2080;51.038;7.008;2023-02-13T08:05:14;1999.90;;;999.90;;
4132;SDS011;2080;51.038;7.008;2023-02-13T08:07:40;1999.90;;;999.90;;
4132;SDS011;2080;51.038;7.008;2023-02-13T08:10:08;1999.90;;;999.90;;
4132;SDS011;2080;51.038;7.008;2023-02-13T08:12:55;1999.90;;;999.90;;
4132;SDS011;2080;51.038;7.008;2023-02-13T08:15:20;1999.90;;;999.90;;
4132;SDS011;2080;51.038;7.008;2023-02-13T08:17:48;1999.90;;;999.90;;
4132;SDS011;2080;51.038;7.008;2023-02-13T08:20:13;1999.90;;;999.90;;
4132;SDS011;2080;51.038;7.008;2023-02-13T08:22:43;1999.90;;;999.90;;
4132;SDS011;2080;51.038;7.008;2023-02-13T08:25:09;1999.90;;;999.90;;
4132;SDS011;2080;51.038;7.008;2023-02-13T08:27:35;1999.90;;;999.90;;
4132;SDS011;2080;51.038;7.008;2023-02-13T08:30:00;1999.90;;;999.90;;
4132;SDS011;2080;51.038;7.008;2023-02-13T08:32:27;1999.90;;;999.90;;
4132;SDS011;2080;51.038;7.008;2023-02-13T08:34:52;1999.90;;;999.90;;
4132;SDS011;2080;51.038;7.008;2023-02-13T08:37:20;1999.90;;;999.90;;
4132;SDS011;2080;51.038;7.008;2023-02-13T08:39:46;1999.90;;;999.90;;
4132;SDS011;2080;51.038;7.008;2023-02-13T08:42:14;1999.90;;;999.90;;
4132;SDS011;2080;51.038;7.008;2023-02-13T08:44:39;1999.90;;;999.90;;
4132;SDS011;2080;51.038;7.008;2023-02-13T08:47:09;1999.90;;;999.90;;
4132;SDS011;2080;51.038;7.008;2023-02-13T08:49:39;1999.90;;;999.90;;
4132;SDS011;2080;51.038;7.008;2023-02-13T08:52:04;1999.90;;;999.90;;
4132;SDS011;2080;51.038;7.008;2023-02-13T08:54:32;1999.90;;;999.90;;
4132;SDS011;2080;51.038;7.008;2023-02-13T08:57:00;1999.90;;;999.90;;
4132;SDS011;2080;51.038;7.008;2023-02-13T08:59:27;1999.90;;;999.90;;
4132;SDS011;2080;51.038;7.008;2023-02-13T09:01:53;1999.90;;;999.90;;
4132;SDS011;2080;51.038;7.008;2023-02-13T09:04:18;1999.90;;;999.90;;
4132;SDS011;2080;51.038;7.008;2023-02-13T09:06:44;1999.90;;;999.90;;
4132;SDS011;2080;51.038;7.008;2023-02-13T09:09:09;1999.90;;;999.90;;
4132;SDS011;2080;51.038;7.008;2023-02-13T09:11:35;1999.90;;;999.90;;
4132;SDS011;2080;51.038;7.008;2023-02-13T09:14:01;1999.90;;;999.90;;
4132;SDS011;2080;51.038;7.008;2023-02-13T09:16:27;1999.90;;;999.90;;
4132;SDS011;2080;51.038;7.008;2023-02-13T09:18:55;1999.90;;;999.90;;
4132;SDS011;2080;51.038;7.008;2023-02-13T09:21:21;1999.90;;;999.90;;
4132;SDS011;2080;51.038;7.008;2023-02-13T09:23:47;1999.90;;;999.90;;
4132;SDS011;2080;51.038;7.008;2023-02-13T09:26:16;1999.90;;;999.90;;
4132;SDS011;2080;51.038;7.008;2023-02-13T09:28:44;1999.90;;;999.90;;
4132;SDS011;2080;51.038;7.008;2023-02-13T09:31:15;1999.90;;;999.90;;
4132;SDS011;2080;51.038;7.008;2023-02-13T09:33:43;1999.90;;;999.90;;
4132;SDS011;2080;51.038;7.008;2023-02-13T09:36:10;1999.90;;;999.90;;
4132;SDS011;2080;51.038;7.008;2023-02-13T09:38:43;1999.90;;;999.90;;
4132;SDS011;2080;51.038;7.008;2023-02-13T09:41:10;1999.90;;;999.90;;
4132;SDS011;2080;51.038;7.008;2023-02-13T09:43:42;1999.90;;;999.90;;
4132;SDS011;2080;51.038;7.008;2023-02-13T09:46:23;1999.90;;;999.90;;
4132;SDS011;2080;51.038;7.008;2023-02-13T09:49:00;1999.90;;;999.90;;
4132;SDS011;2080;51.038;7.008;2023-02-13T09:51:44;1999.90;;;999.90;;
4132;SDS011;2080;51.038;7.008;2023-02-13T09:54:18;1999.90;;;999.90;;
4132;SDS011;2080;51.038;7.008;2023-02-13T10:02:50;1999.90;;;999.90;;
4132;SDS011;2080;51.038;7.008;2023-02-13T10:16:09;595.88;;;536.42;;
4132;SDS011;2080;51.038;7.008;2023-02-13T10:21:14;627.78;;;566.25;;
4132;SDS011;2080;51.038;7.008;2023-02-13T10:23:56;525.75;;;469.90;;
4132;SDS011;2080;51.038;7.008;2023-02-13T10:26:33;570.88;;;513.40;;
4132;SDS011;2080;51.038;7.008;2023-02-13T10:29:20;485.10;;;430.90;;
4132;SDS011;2080;51.038;7.008;2023-02-13T10:32:09;545.38;;;488.35;;
4132;SDS011;2080;51.038;7.008;2023-02-13T10:34:44;535.03;;;479.20;;
4132;SDS011;2080;51.038;7.008;2023-02-13T10:37:17;535.67;;;480.00;;
4132;SDS011;2080;51.038;7.008;2023-02-13T10:39:49;473.25;;;394.27;;
4132;SDS011;2080;51.038;7.008;2023-02-13T10:50:43;448.05;;;313.67;;
4132;SDS011;2080;51.038;7.008;2023-02-13T11:01:19;432.42;;;271.83;;
4132;SDS011;2080;51.038;7.008;2023-02-13T11:04:06;537.60;;;482.25;;
4132;SDS011;2080;51.038;7.008;2023-02-13T11:06:42;555.63;;;498.77;;
4132;SDS011;2080;51.038;7.008;2023-02-13T11:09:14;681.42;;;618.22;;
4132;SDS011;2080;51.038;7.008;2023-02-13T11:11:40;676.73;;;614.13;;
4132;SDS011;2080;51.038;7.008;2023-02-13T11:16:53;368.48;;;129.38;;
4132;SDS011;2080;51.038;7.008;2023-02-13T11:19:32;407.50;;;196.25;;
4132;SDS011;2080;51.038;7.008;2023-02-13T11:22:02;430.08;;;236.50;;
4132;SDS011;2080;51.038;7.008;2023-02-13T11:24:28;467.45;;;365.17;;
4132;SDS011;2080;51.038;7.008;2023-02-13T11:26:59;383.48;;;135.32;;
4132;SDS011;2080;51.038;7.008;2023-02-13T11:29:32;391.58;;;161.65;;
4132;SDS011;2080;51.038;7.008;2023-02-13T11:32:01;405.23;;;197.77;;
4132;SDS011;2080;51.038;7.008;2023-02-13T11:34:28;417.67;;;224.52;;
4132;SDS011;2080;51.038;7.008;2023-02-13T11:37:12;440.13;;;270.98;;
4132;SDS011;2080;51.038;7.008;2023-02-13T11:39:50;425.60;;;218.50;;
4132;SDS011;2080;51.038;7.008;2023-02-13T11:44:56;406.15;;;165.32;;
4132;SDS011;2080;51.038;7.008;2023-02-13T11:47:32;380.75;;;123.90;;
4132;SDS011;2080;51.038;7.008;2023-02-13T11:49:57;398.52;;;171.48;;
4132;SDS011;2080;51.038;7.008;2023-02-13T11:52:41;441.08;;;299.48;;
4132;SDS011;2080;51.038;7.008;2023-02-13T11:55:32;393.23;;;143.90;;
4132;SDS011;2080;51.038;7.008;2023-02-13T12:00:35;408.30;;;205.93;;
4132;SDS011;2080;51.038;7.008;2023-02-13T12:03:37;427.17;;;259.67;;
4132;SDS011;2080;51.038;7.008;2023-02-13T12:05:59;416.02;;;227.73;;
4132;SDS011;2080;51.038;7.008;2023-02-13T12:08:28;430.92;;;272.70;;
4132;SDS011;2080;51.038;7.008;2023-02-13T12:10:55;439.98;;;299.42;;
4132;SDS011;2080;51.038;7.008;2023-02-13T12:13:28;400.40;;;211.98;;
4132;SDS011;2080;51.038;7.008;2023-02-13T12:16:09;436.35;;;287.45;;
4132;SDS011;2080;51.038;7.008;2023-02-13T12:18:48;427.15;;;216.18;;
4132;SDS011;2080;51.038;7.008;2023-02-13T12:21:27;394.45;;;159.05;;
4132;SDS011;2080;51.038;7.008;2023-02-13T12:26:57;407.48;;;183.02;;
4132;SDS011;2080;51.038;7.008;2023-02-13T12:32:56;435.95;;;257.30;;
4132;SDS011;2080;51.038;7.008;2023-02-13T12:35:27;408.63;;;205.70;;
4132;SDS011;2080;51.038;7.008;2023-02-13T12:37:59;381.90;;;147.02;;
4132;SDS011;2080;51.038;7.008;2023-02-13T12:40:45;405.17;;;213.88;;
4132;SDS011;2080;51.038;7.008;2023-02-13T12:45:55;412.85;;;209.18;;
4132;SDS011;2080;51.038;7.008;2023-02-13T12:48:39;390.55;;;160.23;;
4132;SDS011;2080;51.038;7.008;2023-02-13T13:05:14;408.70;;;164.30;;
4132;SDS011;2080;51.038;7.008;2023-02-13T13:14:01;352.63;;;83.30;;
4132;SDS011;2080;51.038;7.008;2023-02-13T13:19:15;335.58;;;40.63;;
4132;SDS011;2080;51.038;7.008;2023-02-13T13:26:51;361.47;;;75.60;;
4132;SDS011;2080;51.038;7.008;2023-02-13T13:30:03;357.33;;;82.55;;
4132;SDS011;2080;51.038;7.008;2023-02-13T13:32:16;342.98;;;53.40;;
4132;SDS011;2080;51.038;7.008;2023-02-13T13:34:45;345.57;;;78.60;;
4132;SDS011;2080;51.038;7.008;2023-02-13T13:45:19;362.05;;;49.50;;
4132;SDS011;2080;51.038;7.008;2023-02-13T13:50:39;351.77;;;60.85;;
4132;SDS011;2080;51.038;7.008;2023-02-13T13:58:35;327.13;;;48.58;;
4132;SDS011;2080;51.038;7.008;2023-02-13T14:03:42;338.40;;;49.83;;
4132;SDS011;2080;51.038;7.008;2023-02-13T14:06:12;345.85;;;45.03;;
4132;SDS011;2080;51.038;7.008;2023-02-13T14:13:59;330.95;;;45.95;;
4132;SDS011;2080;51.038;7.008;2023-02-13T14:19:03;333.55;;;44.42;;
4132;SDS011;2080;51.038;7.008;2023-02-13T14:21:33;357.83;;;94.27;;
4132;SDS011;2080;51.038;7.008;2023-02-13T14:24:00;354.20;;;83.05;;
4132;SDS011;2080;51.038;7.008;2023-02-13T14:26:30;350.67;;;61.70;;
4132;SDS011;2080;51.038;7.008;2023-02-13T14:32:17;333.47;;;47.87;;
4132;SDS011;2080;51.038;7.008;2023-02-13T14:34:26;328.53;;;47.80;;
4132;SDS011;2080;51.038;7.008;2023-02-13T14:39:37;333.30;;;45.83;;
4132;SDS011;2080;51.038;7.008;2023-02-13T14:42:22;338.95;;;44.90;;
4132;SDS011;2080;51.038;7.008;2023-02-13T14:44:50;372.52;;;149.95;;
4132;SDS011;2080;51.038;7.008;2023-02-13T14:49:58;331.75;;;45.45;;
4132;SDS011;2080;51.038;7.008;2023-02-13T14:52:37;331.95;;;47.85;;
4132;SDS011;2080;51.038;7.008;2023-02-13T14:55:12;342.05;;;75.78;;
4132;SDS011;2080;51.038;7.008;2023-02-13T14:57:43;327.40;;;42.30;;
4132;SDS011;2080;51.038;7.008;2023-02-13T15:00:19;342.08;;;56.50;;
4132;SDS011;2080;51.038;7.008;2023-02-13T15:02:54;345.00;;;68.18;;
4132;SDS011;2080;51.038;7.008;2023-02-13T15:05:25;336.35;;;45.10;;
4132;SDS011;2080;51.038;7.008;2023-02-13T15:10:47;341.13;;;58.90;;
4132;SDS011;2080;51.038;7.008;2023-02-13T15:13:21;347.10;;;62.67;;
4132;SDS011;2080;51.038;7.008;2023-02-13T15:16:05;366.13;;;88.72;;
4132;SDS011;2080;51.038;7.008;2023-02-13T15:21:12;328.20;;;49.37;;
4132;SDS011;2080;51.038;7.008;2023-02-13T15:23:40;335.30;;;71.63;;
4132;SDS011;2080;51.038;7.008;2023-02-13T15:26:06;330.90;;;54.13;;
4132;SDS011;2080;51.038;7.008;2023-02-13T15:28:32;336.27;;;54.75;;
4132;SDS011;2080;51.038;7.008;2023-02-13T15:31:04;328.92;;;57.80;;
4132;SDS011;2080;51.038;7.008;2023-02-13T15:33:44;334.90;;;50.95;;
4132;SDS011;2080;51.038;7.008;2023-02-13T15:36:15;332.80;;;55.10;;
4132;SDS011;2080;51.038;7.008;2023-02-13T15:38:45;338.95;;;54.90;;
4132;SDS011;2080;51.038;7.008;2023-02-13T15:41:17;354.23;;;63.50;;
4132;SDS011;2080;51.038;7.008;2023-02-13T15:43:48;345.73;;;67.57;;
4132;SDS011;2080;51.038;7.008;2023-02-13T15:46:26;338.15;;;52.05;;
4132;SDS011;2080;51.038;7.008;2023-02-13T15:48:55;341.87;;;48.17;;
4132;SDS011;2080;51.038;7.008;2023-02-13T15:51:23;345.35;;;51.15;;
4132;SDS011;2080;51.038;7.008;2023-02-13T15:53:52;399.05;;;94.90;;
4132;SDS011;2080;51.038;7.008;2023-02-13T15:56:36;359.90;;;101.10;;
4132;SDS011;2080;51.038;7.008;2023-02-13T15:59:02;363.08;;;84.53;;
4132;SDS011;2080;51.038;7.008;2023-02-13T16:01:27;368.80;;;113.27;;
4132;SDS011;2080;51.038;7.008;2023-02-13T16:03:56;377.27;;;111.57;;
4132;SDS011;2080;51.038;7.008;2023-02-13T16:06:26;361.60;;;88.15;;
4132;SDS011;2080;51.038;7.008;2023-02-13T16:08:55;364.90;;;88.73;;
4132;SDS011;2080;51.038;7.008;2023-02-13T16:11:55;369.15;;;105.03;;
4132;SDS011;2080;51.038;7.008;2023-02-13T16:14:28;435.00;;;187.85;;
4132;SDS011;2080;51.038;7.008;2023-02-13T16:21:59;448.52;;;298.65;;
4132;SDS011;2080;51.038;7.008;2023-02-13T16:24:28;536.00;;;477.58;;
4132;SDS011;2080;51.038;7.008;2023-02-13T16:26:54;497.85;;;436.40;;
4132;SDS011;2080;51.038;7.008;2023-02-13T16:29:21;470.93;;;336.93;;
4132;SDS011;2080;51.038;7.008;2023-02-13T16:31:50;498.08;;;420.75;;
4132;SDS011;2080;51.038;7.008;2023-02-13T16:34:22;453.77;;;207.75;;
4132;SDS011;2080;51.038;7.008;2023-02-13T16:36:50;403.35;;;152.57;;
4132;SDS011;2080;51.038;7.008;2023-02-13T16:39:17;406.30;;;159.57;;
4132;SDS011;2080;51.038;7.008;2023-02-13T16:41:45;393.52;;;162.82;;
4132;SDS011;2080;51.038;7.008;2023-02-13T16:44:23;385.73;;;141.73;;
4132;SDS011;2080;51.038;7.008;2023-02-13T16:46:58;440.02;;;269.50;;
4132;SDS011;2080;51.038;7.008;2023-02-13T16:49:32;375.05;;;115.65;;
4132;SDS011;2080;51.038;7.008;2023-02-13T16:52:16;413.70;;;211.57;;
4132;SDS011;2080;51.038;7.008;2023-02-13T16:54:52;404.10;;;192.30;;
4132;SDS011;2080;51.038;7.008;2023-02-13T16:57:24;623.35;;;561.22;;
4132;SDS011;2080;51.038;7.008;2023-02-13T16:59:57;471.00;;;355.65;;
4132;SDS011;2080;51.038;7.008;2023-02-13T17:02:31;475.50;;;394.27;;
4132;SDS011;2080;51.038;7.008;2023-02-13T17:07:36;487.20;;;416.80;;
4132;SDS011;2080;51.038;7.008;2023-02-13T17:12:51;440.33;;;268.20;;
4132;SDS011;2080;51.038;7.008;2023-02-13T17:15:20;384.30;;;132.02;;
4132;SDS011;2080;51.038;7.008;2023-02-13T17:17:49;374.33;;;96.30;;
4132;SDS011;2080;51.038;7.008;2023-02-13T17:20:15;388.25;;;117.95;;
4132;SDS011;2080;51.038;7.008;2023-02-13T17:22:43;396.55;;;140.57;;
4132;SDS011;2080;51.038;7.008;2023-02-13T17:25:20;405.38;;;184.50;;
4132;SDS011;2080;51.038;7.008;2023-02-13T17:27:53;678.60;;;614.60;;